sensor_id;sensor_type;location;lat;lon;timestamp;temperature;humidity
75987;DHT22;64671;44.726;37.764;2022-12-10T00:01:18;21.37;60.69
75987;DHT22;64671;44.726;37.764;2022-12-10T00:03:22;21.35;60.60
75987;DHT22;64671;44.726;37.764;2022-12-10T00:04:24;21.35;60.49
75987;DHT22;64671;44.726;37.764;2022-12-10T00:05:25;21.35;60.52
75987;DHT22;64671;44.726;37.764;2022-12-10T00:06:29;21.34;60.58
75987;DHT22;64671;44.726;37.764;2022-12-10T00:07:31;21.35;60.60
75987;DHT22;64671;44.726;37.764;2022-12-10T00:08:33;21.35;60.57
75987;DHT22;64671;44.726;37.764;2022-12-10T00:09:34;21.34;60.51
75987;DHT22;64671;44.726;37.764;2022-12-10T00:15:23;21.32;60.48
75987;DHT22;64671;44.726;37.764;2022-12-10T00:16:26;21.33;60.51
75987;DHT22;64671;44.726;37.764;2022-12-10T00:17:27;21.32;60.41
75987;DHT22;64671;44.726;37.764;2022-12-10T00:18:29;21.33;60.44
75987;DHT22;64671;44.726;37.764;2022-12-10T00:19:30;21.32;60.39
75987;DHT22;64671;44.726;37.764;2022-12-10T00:20:31;21.31;60.43
75987;DHT22;64671;44.726;37.764;2022-12-10T00:21:35;21.32;60.36
75987;DHT22;64671;44.726;37.764;2022-12-10T00:22:36;21.32;60.39
75987;DHT22;64671;44.726;37.764;2022-12-10T00:23:38;21.32;60.40
75987;DHT22;64671;44.726;37.764;2022-12-10T00:24:40;21.33;60.41
75987;DHT22;64671;44.726;37.764;2022-12-10T00:25:41;21.31;60.47
75987;DHT22;64671;44.726;37.764;2022-12-10T00:26:42;21.32;60.37
75987;DHT22;64671;44.726;37.764;2022-12-10T00:27:44;21.31;60.40
75987;DHT22;64671;44.726;37.764;2022-12-10T00:28:45;21.33;60.44
75987;DHT22;64671;44.726;37.764;2022-12-10T00:30:42;21.32;60.44
75987;DHT22;64671;44.726;37.764;2022-12-10T00:31:45;21.31;60.40
75987;DHT22;64671;44.726;37.764;2022-12-10T00:34:22;21.32;60.43
75987;DHT22;64671;44.726;37.764;2022-12-10T00:35:24;21.31;60.42
75987;DHT22;64671;44.726;37.764;2022-12-10T00:36:29;21.30;60.40
75987;DHT22;64671;44.726;37.764;2022-12-10T00:37:32;21.30;60.38
75987;DHT22;64671;44.726;37.764;2022-12-10T00:38:35;21.30;60.49
75987;DHT22;64671;44.726;37.764;2022-12-10T00:39:36;21.30;60.35
75987;DHT22;64671;44.726;37.764;2022-12-10T00:40:38;21.29;60.34
75987;DHT22;64671;44.726;37.764;2022-12-10T00:41:39;21.30;60.32
75987;DHT22;64671;44.726;37.764;2022-12-10T00:42:41;21.30;60.39
75987;DHT22;64671;44.726;37.764;2022-12-10T00:43:43;21.30;60.29
75987;DHT22;64671;44.726;37.764;2022-12-10T00:44:45;21.30;60.31
75987;DHT22;64671;44.726;37.764;2022-12-10T00:45:46;21.29;60.30
75987;DHT22;64671;44.726;37.764;2022-12-10T00:46:48;21.29;60.26
75987;DHT22;64671;44.726;37.764;2022-12-10T00:47:49;21.30;60.24
75987;DHT22;64671;44.726;37.764;2022-12-10T00:48:50;21.29;60.24
75987;DHT22;64671;44.726;37.764;2022-12-10T00:49:53;21.30;60.20
75987;DHT22;64671;44.726;37.764;2022-12-10T00:51:01;21.31;60.27
75987;DHT22;64671;44.726;37.764;2022-12-10T00:52:02;21.31;60.20
75987;DHT22;64671;44.726;37.764;2022-12-10T00:53:05;21.31;60.27
75987;DHT22;64671;44.726;37.764;2022-12-10T00:54:54;21.30;60.18
75987;DHT22;64671;44.726;37.764;2022-12-10T00:55:56;21.30;60.19
75987;DHT22;64671;44.726;37.764;2022-12-10T00:56:58;21.31;60.22
75987;DHT22;64671;44.726;37.764;2022-12-10T00:58:56;21.30;60.24
75987;DHT22;64671;44.726;37.764;2022-12-10T00:59:57;21.30;60.22
75987;DHT22;64671;44.726;37.764;2022-12-10T01:01:19;21.29;60.22
75987;DHT22;64671;44.726;37.764;2022-12-10T01:02:21;21.30;60.20
75987;DHT22;64671;44.726;37.764;2022-12-10T01:03:24;21.30;60.18
75987;DHT22;64671;44.726;37.764;2022-12-10T01:04:25;21.30;60.16
75987;DHT22;64671;44.726;37.764;2022-12-10T01:05:27;21.30;60.16
75987;DHT22;64671;44.726;37.764;2022-12-10T01:06:31;21.30;60.18
75987;DHT22;64671;44.726;37.764;2022-12-10T01:07:32;21.31;60.31
75987;DHT22;64671;44.726;37.764;2022-12-10T01:08:34;21.30;60.22
75987;DHT22;64671;44.726;37.764;2022-12-10T01:10:23;21.28;60.18
75987;DHT22;64671;44.726;37.764;2022-12-10T01:12:49;21.28;60.17
75987;DHT22;64671;44.726;37.764;2022-12-10T01:13:51;21.28;60.18
75987;DHT22;64671;44.726;37.764;2022-12-10T01:14:53;21.28;60.21
75987;DHT22;64671;44.726;37.764;2022-12-10T01:15:55;21.29;60.18
75987;DHT22;64671;44.726;37.764;2022-12-10T01:16:59;21.29;60.15
75987;DHT22;64671;44.726;37.764;2022-12-10T01:18:03;21.29;60.14
75987;DHT22;64671;44.726;37.764;2022-12-10T01:19:05;21.29;60.16
75987;DHT22;64671;44.726;37.764;2022-12-10T01:20:09;21.28;60.12
75987;DHT22;64671;44.726;37.764;2022-12-10T01:21:13;21.29;60.06
75987;DHT22;64671;44.726;37.764;2022-12-10T01:23:11;21.29;60.09
75987;DHT22;64671;44.726;37.764;2022-12-10T01:24:13;21.29;60.14
75987;DHT22;64671;44.726;37.764;2022-12-10T01:26:07;21.28;60.07
75987;DHT22;64671;44.726;37.764;2022-12-10T01:27:09;21.29;60.06
75987;DHT22;64671;44.726;37.764;2022-12-10T01:28:10;21.28;60.14
75987;DHT22;64671;44.726;37.764;2022-12-10T01:30:14;21.29;60.09
75987;DHT22;64671;44.726;37.764;2022-12-10T01:32:19;21.28;60.15
75987;DHT22;64671;44.726;37.764;2022-12-10T01:33:20;21.28;60.11
75987;DHT22;64671;44.726;37.764;2022-12-10T01:35:10;21.25;60.28
75987;DHT22;64671;44.726;37.764;2022-12-10T01:36:18;21.27;60.15
75987;DHT22;64671;44.726;37.764;2022-12-10T01:37:19;21.28;60.15
75987;DHT22;64671;44.726;37.764;2022-12-10T01:38:21;21.27;60.14
75987;DHT22;64671;44.726;37.764;2022-12-10T01:39:23;21.24;60.21
75987;DHT22;64671;44.726;37.764;2022-12-10T01:40:24;21.27;60.13
75987;DHT22;64671;44.726;37.764;2022-12-10T01:41:33;21.27;60.17
75987;DHT22;64671;44.726;37.764;2022-12-10T01:43:22;21.25;60.22
75987;DHT22;64671;44.726;37.764;2022-12-10T01:45:25;21.25;60.07
75987;DHT22;64671;44.726;37.764;2022-12-10T01:46:29;21.25;60.13
75987;DHT22;64671;44.726;37.764;2022-12-10T01:47:31;21.25;60.10
75987;DHT22;64671;44.726;37.764;2022-12-10T01:48:33;21.24;60.13
75987;DHT22;64671;44.726;37.764;2022-12-10T01:49:37;21.25;60.12
75987;DHT22;64671;44.726;37.764;2022-12-10T01:50:38;21.27;60.08
75987;DHT22;64671;44.726;37.764;2022-12-10T01:51:41;21.25;60.05
75987;DHT22;64671;44.726;37.764;2022-12-10T01:52:43;21.25;60.04
75987;DHT22;64671;44.726;37.764;2022-12-10T01:53:44;21.27;60.04
75987;DHT22;64671;44.726;37.764;2022-12-10T01:54:47;21.27;60.05
75987;DHT22;64671;44.726;37.764;2022-12-10T01:55:50;21.25;60.06
75987;DHT22;64671;44.726;37.764;2022-12-10T01:57:00;21.25;60.09
75987;DHT22;64671;44.726;37.764;2022-12-10T01:58:02;21.25;60.02
75987;DHT22;64671;44.726;37.764;2022-12-10T01:59:04;21.25;60.00
75987;DHT22;64671;44.726;37.764;2022-12-10T02:00:06;21.25;60.09
75987;DHT22;64671;44.726;37.764;2022-12-10T02:03:04;21.24;60.02
75987;DHT22;64671;44.726;37.764;2022-12-10T02:05:28;21.25;60.11
75987;DHT22;64671;44.726;37.764;2022-12-10T02:06:45;21.27;60.09
75987;DHT22;64671;44.726;37.764;2022-12-10T02:08:07;21.25;60.00
75987;DHT22;64671;44.726;37.764;2022-12-10T02:09:41;21.25;59.99
75987;DHT22;64671;44.726;37.764;2022-12-10T02:14:51;21.24;59.99
75987;DHT22;64671;44.726;37.764;2022-12-10T02:16:04;21.23;60.02
75987;DHT22;64671;44.726;37.764;2022-12-10T02:17:14;21.24;60.02
75987;DHT22;64671;44.726;37.764;2022-12-10T02:20:32;21.24;60.02
75987;DHT22;64671;44.726;37.764;2022-12-10T02:21:40;21.24;60.08
75987;DHT22;64671;44.726;37.764;2022-12-10T02:22:51;21.23;60.07
75987;DHT22;64671;44.726;37.764;2022-12-10T02:24:43;21.24;60.01
75987;DHT22;64671;44.726;37.764;2022-12-10T02:25:54;21.22;60.09
75987;DHT22;64671;44.726;37.764;2022-12-10T02:29:17;21.23;60.02
75987;DHT22;64671;44.726;37.764;2022-12-10T02:30:19;21.23;59.99
75987;DHT22;64671;44.726;37.764;2022-12-10T02:32:20;21.22;60.11
75987;DHT22;64671;44.726;37.764;2022-12-10T02:33:23;21.22;60.06
75987;DHT22;64671;44.726;37.764;2022-12-10T02:34:28;21.23;60.12
75987;DHT22;64671;44.726;37.764;2022-12-10T02:35:33;21.21;60.12
75987;DHT22;64671;44.726;37.764;2022-12-10T02:36:39;21.21;60.17
75987;DHT22;64671;44.726;37.764;2022-12-10T02:37:48;21.22;60.06
75987;DHT22;64671;44.726;37.764;2022-12-10T02:38:51;21.21;60.04
75987;DHT22;64671;44.726;37.764;2022-12-10T02:39:58;21.23;60.08
75987;DHT22;64671;44.726;37.764;2022-12-10T02:41:53;21.22;60.03
75987;DHT22;64671;44.726;37.764;2022-12-10T02:42:55;21.22;60.13
75987;DHT22;64671;44.726;37.764;2022-12-10T02:44:02;21.22;60.08
75987;DHT22;64671;44.726;37.764;2022-12-10T02:45:06;21.22;60.07
75987;DHT22;64671;44.726;37.764;2022-12-10T02:46:10;21.20;60.06
75987;DHT22;64671;44.726;37.764;2022-12-10T02:47:11;21.21;60.09
75987;DHT22;64671;44.726;37.764;2022-12-10T02:48:18;21.22;60.05
75987;DHT22;64671;44.726;37.764;2022-12-10T02:49:20;21.21;60.06
75987;DHT22;64671;44.726;37.764;2022-12-10T02:50:23;21.23;59.96
75987;DHT22;64671;44.726;37.764;2022-12-10T02:51:25;21.21;60.14
75987;DHT22;64671;44.726;37.764;2022-12-10T02:52:27;21.22;60.05
75987;DHT22;64671;44.726;37.764;2022-12-10T02:53:29;21.21;60.08
75987;DHT22;64671;44.726;37.764;2022-12-10T03:00:12;21.21;60.12
75987;DHT22;64671;44.726;37.764;2022-12-10T03:06:03;21.21;60.18
75987;DHT22;64671;44.726;37.764;2022-12-10T03:07:38;21.19;60.07
75987;DHT22;64671;44.726;37.764;2022-12-10T03:08:50;21.19;60.25
75987;DHT22;64671;44.726;37.764;2022-12-10T03:09:55;21.19;60.37
75987;DHT22;64671;44.726;37.764;2022-12-10T03:11:17;21.19;60.38
75987;DHT22;64671;44.726;37.764;2022-12-10T03:12:43;21.20;60.36
75987;DHT22;64671;44.726;37.764;2022-12-10T03:14:36;21.21;60.40
75987;DHT22;64671;44.726;37.764;2022-12-10T03:15:40;21.21;60.40
75987;DHT22;64671;44.726;37.764;2022-12-10T03:17:39;21.23;60.60
75987;DHT22;64671;44.726;37.764;2022-12-10T03:18:42;21.23;60.68
75987;DHT22;64671;44.726;37.764;2022-12-10T03:19:52;21.24;60.73
75987;DHT22;64671;44.726;37.764;2022-12-10T03:22:44;21.28;60.90
75987;DHT22;64671;44.726;37.764;2022-12-10T03:23:47;21.27;60.85
75987;DHT22;64671;44.726;37.764;2022-12-10T03:24:50;21.28;60.91
75987;DHT22;64671;44.726;37.764;2022-12-10T03:25:53;21.28;60.81
75987;DHT22;64671;44.726;37.764;2022-12-10T03:26:55;21.28;60.94
75987;DHT22;64671;44.726;37.764;2022-12-10T03:27:59;21.30;60.99
75987;DHT22;64671;44.726;37.764;2022-12-10T03:29:07;21.30;61.05
75987;DHT22;64671;44.726;37.764;2022-12-10T03:32:05;21.31;61.00
75987;DHT22;64671;44.726;37.764;2022-12-10T03:33:07;21.31;60.93
75987;DHT22;64671;44.726;37.764;2022-12-10T03:34:10;21.32;60.96
75987;DHT22;64671;44.726;37.764;2022-12-10T03:35:13;21.32;61.01
75987;DHT22;64671;44.726;37.764;2022-12-10T03:36:17;21.32;60.94
75987;DHT22;64671;44.726;37.764;2022-12-10T03:37:20;21.34;61.03
75987;DHT22;64671;44.726;37.764;2022-12-10T03:38:22;21.34;60.93
75987;DHT22;64671;44.726;37.764;2022-12-10T03:39:23;21.34;60.95
75987;DHT22;64671;44.726;37.764;2022-12-10T03:40:25;21.34;60.89
75987;DHT22;64671;44.726;37.764;2022-12-10T03:41:27;21.34;60.96
75987;DHT22;64671;44.726;37.764;2022-12-10T03:42:28;21.36;60.87
75987;DHT22;64671;44.726;37.764;2022-12-10T03:43:30;21.34;60.85
75987;DHT22;64671;44.726;37.764;2022-12-10T03:45:27;21.35;60.87
75987;DHT22;64671;44.726;37.764;2022-12-10T03:46:30;21.36;60.83
75987;DHT22;64671;44.726;37.764;2022-12-10T03:48:14;21.36;60.81
75987;DHT22;64671;44.726;37.764;2022-12-10T03:48:59;21.38;60.87
75987;DHT22;64671;44.726;37.764;2022-12-10T03:50:02;21.38;60.86
75987;DHT22;64671;44.726;37.764;2022-12-10T03:51:09;21.37;60.89
75987;DHT22;64671;44.726;37.764;2022-12-10T03:52:11;21.39;60.86
75987;DHT22;64671;44.726;37.764;2022-12-10T03:53:13;21.39;60.76
75987;DHT22;64671;44.726;37.764;2022-12-10T03:54:14;21.39;60.84
75987;DHT22;64671;44.726;37.764;2022-12-10T03:55:15;21.40;60.89
75987;DHT22;64671;44.726;37.764;2022-12-10T03:56:18;21.40;60.83
75987;DHT22;64671;44.726;37.764;2022-12-10T03:57:20;21.40;60.76
75987;DHT22;64671;44.726;37.764;2022-12-10T03:58:21;21.42;60.83
75987;DHT22;64671;44.726;37.764;2022-12-10T03:59:23;21.42;60.75
75987;DHT22;64671;44.726;37.764;2022-12-10T04:00:24;21.42;60.83
75987;DHT22;64671;44.726;37.764;2022-12-10T04:01:25;21.39;60.80
75987;DHT22;64671;44.726;37.764;2022-12-10T04:02:27;21.42;60.96
75987;DHT22;64671;44.726;37.764;2022-12-10T04:03:29;21.42;60.86
75987;DHT22;64671;44.726;37.764;2022-12-10T04:04:30;21.42;60.73
75987;DHT22;64671;44.726;37.764;2022-12-10T04:05:31;21.42;60.79
75987;DHT22;64671;44.726;37.764;2022-12-10T04:07:21;21.43;61.03
75987;DHT22;64671;44.726;37.764;2022-12-10T04:08:22;21.43;61.23
75987;DHT22;64671;44.726;37.764;2022-12-10T04:09:24;21.43;60.98
75987;DHT22;64671;44.726;37.764;2022-12-10T04:10:25;21.45;60.81
75987;DHT22;64671;44.726;37.764;2022-12-10T04:11:26;21.43;60.78
75987;DHT22;64671;44.726;37.764;2022-12-10T04:12:28;21.44;60.79
75987;DHT22;64671;44.726;37.764;2022-12-10T04:13:32;21.44;60.73
75987;DHT22;64671;44.726;37.764;2022-12-10T04:14:53;21.44;60.72
75987;DHT22;64671;44.726;37.764;2022-12-10T04:16:19;21.43;60.64
75987;DHT22;64671;44.726;37.764;2022-12-10T04:17:27;21.43;60.62
75987;DHT22;64671;44.726;37.764;2022-12-10T04:18:28;21.43;60.62
75987;DHT22;64671;44.726;37.764;2022-12-10T04:19:30;21.44;60.59
75987;DHT22;64671;44.726;37.764;2022-12-10T04:20:31;21.43;60.57
75987;DHT22;64671;44.726;37.764;2022-12-10T04:21:51;21.42;60.49
75987;DHT22;64671;44.726;37.764;2022-12-10T04:23:11;21.42;60.70
75987;DHT22;64671;44.726;37.764;2022-12-10T04:24:36;21.40;60.84
75987;DHT22;64671;44.726;37.764;2022-12-10T04:25:56;21.40;60.86
75987;DHT22;64671;44.726;37.764;2022-12-10T04:27:35;21.42;60.88
75987;DHT22;64671;44.726;37.764;2022-12-10T04:29:29;21.43;60.96
75987;DHT22;64671;44.726;37.764;2022-12-10T04:30:31;21.44;60.99
75987;DHT22;64671;44.726;37.764;2022-12-10T04:31:32;21.44;61.02
75987;DHT22;64671;44.726;37.764;2022-12-10T04:33:29;21.45;60.98
75987;DHT22;64671;44.726;37.764;2022-12-10T04:34:30;21.44;60.98
75987;DHT22;64671;44.726;37.764;2022-12-10T04:36:20;21.47;60.92
75987;DHT22;64671;44.726;37.764;2022-12-10T04:37:22;21.47;60.86
75987;DHT22;64671;44.726;37.764;2022-12-10T04:38:23;21.48;60.84
75987;DHT22;64671;44.726;37.764;2022-12-10T04:40:12;21.49;60.83
75987;DHT22;64671;44.726;37.764;2022-12-10T04:41:14;21.50;60.78
75987;DHT22;64671;44.726;37.764;2022-12-10T04:42:16;21.51;60.73
75987;DHT22;64671;44.726;37.764;2022-12-10T04:43:18;21.51;60.66
75987;DHT22;64671;44.726;37.764;2022-12-10T04:44:19;21.53;60.74
75987;DHT22;64671;44.726;37.764;2022-12-10T04:45:21;21.52;60.62
75987;DHT22;64671;44.726;37.764;2022-12-10T04:46:23;21.52;60.61
75987;DHT22;64671;44.726;37.764;2022-12-10T04:48:16;21.54;60.51
75987;DHT22;64671;44.726;37.764;2022-12-10T04:49:17;21.55;60.51
75987;DHT22;64671;44.726;37.764;2022-12-10T04:50:19;21.57;60.44
75987;DHT22;64671;44.726;37.764;2022-12-10T04:51:20;21.58;60.40
75987;DHT22;64671;44.726;37.764;2022-12-10T04:52:21;21.59;60.32
75987;DHT22;64671;44.726;37.764;2022-12-10T04:53:22;21.60;60.32
75987;DHT22;64671;44.726;37.764;2022-12-10T04:54:24;21.60;60.27
75987;DHT22;64671;44.726;37.764;2022-12-10T04:56:14;21.60;60.24
75987;DHT22;64671;44.726;37.764;2022-12-10T04:57:15;21.60;60.15
75987;DHT22;64671;44.726;37.764;2022-12-10T04:58:16;21.61;60.17
75987;DHT22;64671;44.726;37.764;2022-12-10T04:59:18;21.61;60.18
75987;DHT22;64671;44.726;37.764;2022-12-10T05:00:20;21.61;60.10
75987;DHT22;64671;44.726;37.764;2022-12-10T05:01:22;21.62;60.09
75987;DHT22;64671;44.726;37.764;2022-12-10T05:02:30;21.62;60.03
75987;DHT22;64671;44.726;37.764;2022-12-10T05:03:33;21.64;60.07
75987;DHT22;64671;44.726;37.764;2022-12-10T05:04:35;21.64;59.99
75987;DHT22;64671;44.726;37.764;2022-12-10T05:05:36;21.64;59.92
75987;DHT22;64671;44.726;37.764;2022-12-10T05:06:38;21.65;59.89
75987;DHT22;64671;44.726;37.764;2022-12-10T05:07:40;21.65;59.90
75987;DHT22;64671;44.726;37.764;2022-12-10T05:08:41;21.66;59.90
75987;DHT22;64671;44.726;37.764;2022-12-10T05:09:43;21.67;59.84
75987;DHT22;64671;44.726;37.764;2022-12-10T05:10:44;21.65;59.85
75987;DHT22;64671;44.726;37.764;2022-12-10T05:11:45;21.67;59.80
75987;DHT22;64671;44.726;37.764;2022-12-10T05:12:46;21.68;59.81
75987;DHT22;64671;44.726;37.764;2022-12-10T05:13:48;21.69;59.78
75987;DHT22;64671;44.726;37.764;2022-12-10T05:14:50;21.69;59.70
75987;DHT22;64671;44.726;37.764;2022-12-10T05:15:51;21.68;59.64
75987;DHT22;64671;44.726;37.764;2022-12-10T05:16:52;21.69;59.69
75987;DHT22;64671;44.726;37.764;2022-12-10T05:17:54;21.69;59.72
75987;DHT22;64671;44.726;37.764;2022-12-10T05:18:56;21.72;59.65
75987;DHT22;64671;44.726;37.764;2022-12-10T05:19:57;21.72;59.70
75987;DHT22;64671;44.726;37.764;2022-12-10T05:21:00;21.72;59.64
75987;DHT22;64671;44.726;37.764;2022-12-10T05:22:01;21.72;59.58
75987;DHT22;64671;44.726;37.764;2022-12-10T05:23:21;21.73;59.50
75987;DHT22;64671;44.726;37.764;2022-12-10T05:24:31;21.73;59.47
75987;DHT22;64671;44.726;37.764;2022-12-10T05:25:33;21.72;59.48
75987;DHT22;64671;44.726;37.764;2022-12-10T05:26:53;21.74;59.41
75987;DHT22;64671;44.726;37.764;2022-12-10T05:27:54;21.74;59.40
75987;DHT22;64671;44.726;37.764;2022-12-10T05:28:56;21.75;59.44
75987;DHT22;64671;44.726;37.764;2022-12-10T05:29:57;21.75;59.40
75987;DHT22;64671;44.726;37.764;2022-12-10T05:30:59;21.76;59.37
75987;DHT22;64671;44.726;37.764;2022-12-10T05:32:02;21.75;59.41
75987;DHT22;64671;44.726;37.764;2022-12-10T05:33:04;21.76;59.37
75987;DHT22;64671;44.726;37.764;2022-12-10T05:34:05;21.75;59.36
75987;DHT22;64671;44.726;37.764;2022-12-10T05:35:09;21.75;59.22
75987;DHT22;64671;44.726;37.764;2022-12-10T05:36:12;21.77;59.25
75987;DHT22;64671;44.726;37.764;2022-12-10T05:37:13;21.77;59.27
75987;DHT22;64671;44.726;37.764;2022-12-10T05:38:15;21.77;59.22
75987;DHT22;64671;44.726;37.764;2022-12-10T05:39:16;21.77;59.20
75987;DHT22;64671;44.726;37.764;2022-12-10T05:40:17;21.77;59.25
75987;DHT22;64671;44.726;37.764;2022-12-10T05:41:22;21.78;59.16
75987;DHT22;64671;44.726;37.764;2022-12-10T05:42:23;21.79;59.22
75987;DHT22;64671;44.726;37.764;2022-12-10T05:43:24;21.79;59.14
75987;DHT22;64671;44.726;37.764;2022-12-10T05:44:26;21.78;59.16
75987;DHT22;64671;44.726;37.764;2022-12-10T05:45:27;21.79;59.12
75987;DHT22;64671;44.726;37.764;2022-12-10T05:46:30;21.79;59.06
75987;DHT22;64671;44.726;37.764;2022-12-10T05:47:39;21.80;59.09
75987;DHT22;64671;44.726;37.764;2022-12-10T05:48:41;21.80;58.99
75987;DHT22;64671;44.726;37.764;2022-12-10T05:49:42;21.81;58.95
75987;DHT22;64671;44.726;37.764;2022-12-10T05:50:43;21.80;59.03
75987;DHT22;64671;44.726;37.764;2022-12-10T05:51:44;21.80;59.03
75987;DHT22;64671;44.726;37.764;2022-12-10T05:52:46;21.79;58.91
75987;DHT22;64671;44.726;37.764;2022-12-10T05:53:47;21.82;59.06
75987;DHT22;64671;44.726;37.764;2022-12-10T05:54:49;21.81;58.99
75987;DHT22;64671;44.726;37.764;2022-12-10T05:55:59;21.81;58.92
75987;DHT22;64671;44.726;37.764;2022-12-10T05:57:01;21.81;58.99
75987;DHT22;64671;44.726;37.764;2022-12-10T05:58:03;21.82;58.93
75987;DHT22;64671;44.726;37.764;2022-12-10T05:59:05;21.82;58.91
75987;DHT22;64671;44.726;37.764;2022-12-10T06:00:06;21.82;58.96
75987;DHT22;64671;44.726;37.764;2022-12-10T06:01:19;21.84;58.99
75987;DHT22;64671;44.726;37.764;2022-12-10T06:02:21;21.83;58.93
75987;DHT22;64671;44.726;37.764;2022-12-10T06:03:22;21.82;58.96
75987;DHT22;64671;44.726;37.764;2022-12-10T06:04:24;21.84;58.95
75987;DHT22;64671;44.726;37.764;2022-12-10T06:05:25;21.83;58.81
75987;DHT22;64671;44.726;37.764;2022-12-10T06:06:35;21.84;58.79
75987;DHT22;64671;44.726;37.764;2022-12-10T06:07:36;21.83;58.93
75987;DHT22;64671;44.726;37.764;2022-12-10T06:08:38;21.83;58.77
75987;DHT22;64671;44.726;37.764;2022-12-10T06:09:42;21.84;58.83
75987;DHT22;64671;44.726;37.764;2022-12-10T06:10:43;21.84;58.80
75987;DHT22;64671;44.726;37.764;2022-12-10T06:11:44;21.85;58.75
75987;DHT22;64671;44.726;37.764;2022-12-10T06:12:46;21.87;58.76
75987;DHT22;64671;44.726;37.764;2022-12-10T06:13:47;21.85;58.67
75987;DHT22;64671;44.726;37.764;2022-12-10T06:14:51;21.84;58.70
75987;DHT22;64671;44.726;37.764;2022-12-10T06:15:53;21.84;58.79
75987;DHT22;64671;44.726;37.764;2022-12-10T06:16:54;21.85;58.82
75987;DHT22;64671;44.726;37.764;2022-12-10T06:17:55;21.85;58.74
75987;DHT22;64671;44.726;37.764;2022-12-10T06:18:57;21.85;58.74
75987;DHT22;64671;44.726;37.764;2022-12-10T06:20:05;21.85;58.76
75987;DHT22;64671;44.726;37.764;2022-12-10T06:21:11;21.87;58.77
75987;DHT22;64671;44.726;37.764;2022-12-10T06:22:13;21.87;58.77
75987;DHT22;64671;44.726;37.764;2022-12-10T06:23:14;21.87;58.77
75987;DHT22;64671;44.726;37.764;2022-12-10T06:24:16;21.85;58.69
75987;DHT22;64671;44.726;37.764;2022-12-10T06:25:17;21.88;58.71
75987;DHT22;64671;44.726;37.764;2022-12-10T06:26:24;21.87;58.75
75987;DHT22;64671;44.726;37.764;2022-12-10T06:27:26;21.88;58.79
75987;DHT22;64671;44.726;37.764;2022-12-10T06:28:27;21.87;58.74
75987;DHT22;64671;44.726;37.764;2022-12-10T06:29:29;21.89;58.73
75987;DHT22;64671;44.726;37.764;2022-12-10T06:30:30;21.88;58.64
75987;DHT22;64671;44.726;37.764;2022-12-10T06:31:33;21.89;58.69
75987;DHT22;64671;44.726;37.764;2022-12-10T06:32:34;21.89;58.71
75987;DHT22;64671;44.726;37.764;2022-12-10T06:33:35;21.88;58.70
75987;DHT22;64671;44.726;37.764;2022-12-10T06:34:37;21.88;58.69
75987;DHT22;64671;44.726;37.764;2022-12-10T06:35:38;21.88;58.58
75987;DHT22;64671;44.726;37.764;2022-12-10T06:36:40;21.89;58.65
75987;DHT22;64671;44.726;37.764;2022-12-10T06:37:41;21.90;58.67
75987;DHT22;64671;44.726;37.764;2022-12-10T06:38:43;21.89;58.64
75987;DHT22;64671;44.726;37.764;2022-12-10T06:39:45;21.89;58.63
75987;DHT22;64671;44.726;37.764;2022-12-10T06:40:46;21.89;58.48
75987;DHT22;64671;44.726;37.764;2022-12-10T06:41:49;21.90;58.63
75987;DHT22;64671;44.726;37.764;2022-12-10T06:42:51;21.90;58.40
75987;DHT22;64671;44.726;37.764;2022-12-10T06:43:53;21.91;58.49
75987;DHT22;64671;44.726;37.764;2022-12-10T06:44:54;21.90;58.54
75987;DHT22;64671;44.726;37.764;2022-12-10T06:45:56;21.90;58.58
75987;DHT22;64671;44.726;37.764;2022-12-10T06:46:57;21.90;58.55
75987;DHT22;64671;44.726;37.764;2022-12-10T06:48:00;21.92;58.45
75987;DHT22;64671;44.726;37.764;2022-12-10T06:50:24;21.92;58.47
75987;DHT22;64671;44.726;37.764;2022-12-10T06:52:13;21.92;58.39
75987;DHT22;64671;44.726;37.764;2022-12-10T06:53:15;21.90;58.57
75987;DHT22;64671;44.726;37.764;2022-12-10T06:54:16;21.92;58.53
75987;DHT22;64671;44.726;37.764;2022-12-10T06:55:17;21.92;58.52
75987;DHT22;64671;44.726;37.764;2022-12-10T06:56:19;21.92;58.54
75987;DHT22;64671;44.726;37.764;2022-12-10T06:57:21;21.93;58.53
75987;DHT22;64671;44.726;37.764;2022-12-10T06:58:22;21.92;58.54
75987;DHT22;64671;44.726;37.764;2022-12-10T06:59:23;21.92;58.61
75987;DHT22;64671;44.726;37.764;2022-12-10T07:00:25;21.92;58.54
75987;DHT22;64671;44.726;37.764;2022-12-10T07:01:26;21.91;58.51
75987;DHT22;64671;44.726;37.764;2022-12-10T07:02:27;21.93;58.45
75987;DHT22;64671;44.726;37.764;2022-12-10T07:03:29;21.92;58.53
75987;DHT22;64671;44.726;37.764;2022-12-10T07:04:30;21.92;58.33
75987;DHT22;64671;44.726;37.764;2022-12-10T07:05:32;21.94;58.31
75987;DHT22;64671;44.726;37.764;2022-12-10T07:06:33;21.93;58.37
75987;DHT22;64671;44.726;37.764;2022-12-10T07:07:35;21.93;58.43
75987;DHT22;64671;44.726;37.764;2022-12-10T07:09:25;21.93;58.38
75987;DHT22;64671;44.726;37.764;2022-12-10T07:10:26;21.94;58.56
75987;DHT22;64671;44.726;37.764;2022-12-10T07:11:28;21.92;58.25
75987;DHT22;64671;44.726;37.764;2022-12-10T07:13:19;21.92;58.04
75987;DHT22;64671;44.726;37.764;2022-12-10T07:14:20;21.92;57.92
75987;DHT22;64671;44.726;37.764;2022-12-10T07:15:22;21.91;57.94
75987;DHT22;64671;44.726;37.764;2022-12-10T07:16:30;21.90;57.87
75987;DHT22;64671;44.726;37.764;2022-12-10T07:17:31;21.89;57.84
75987;DHT22;64671;44.726;37.764;2022-12-10T07:18:32;21.91;57.87
75987;DHT22;64671;44.726;37.764;2022-12-10T07:19:34;21.87;57.90
75987;DHT22;64671;44.726;37.764;2022-12-10T07:20:35;21.88;57.93
75987;DHT22;64671;44.726;37.764;2022-12-10T07:21:38;21.88;57.98
75987;DHT22;64671;44.726;37.764;2022-12-10T07:22:41;21.87;58.00
75987;DHT22;64671;44.726;37.764;2022-12-10T07:24:38;21.85;58.13
75987;DHT22;64671;44.726;37.764;2022-12-10T07:25:39;21.85;58.18
75987;DHT22;64671;44.726;37.764;2022-12-10T07:26:42;21.84;58.25
75987;DHT22;64671;44.726;37.764;2022-12-10T07:27:43;21.84;58.64
75987;DHT22;64671;44.726;37.764;2022-12-10T07:28:45;21.84;58.77
75987;DHT22;64671;44.726;37.764;2022-12-10T07:29:46;21.84;58.98
75987;DHT22;64671;44.726;37.764;2022-12-10T07:30:49;21.83;58.80
75987;DHT22;64671;44.726;37.764;2022-12-10T07:31:51;21.83;58.80
75987;DHT22;64671;44.726;37.764;2022-12-10T07:32:52;21.82;58.75
75987;DHT22;64671;44.726;37.764;2022-12-10T07:33:54;21.81;58.77
75987;DHT22;64671;44.726;37.764;2022-12-10T07:34:55;21.82;58.81
75987;DHT22;64671;44.726;37.764;2022-12-10T07:35:57;21.81;59.37